createdAt,value
2023-05-21T00:01:21.195Z,98475.39
2023-05-21T00:03:53.384Z,98473.49
2023-05-21T00:06:25.403Z,98473.63
2023-05-21T00:08:57.034Z,98471.70
2023-05-21T00:11:28.561Z,98474.52
2023-05-21T00:14:00.282Z,98473.73
2023-05-21T00:16:32.231Z,98472.48
2023-05-21T00:19:03.845Z,98469.96
2023-05-21T00:21:35.415Z,98469.07
2023-05-21T00:24:07.780Z,98469.42
2023-05-21T00:26:39.436Z,98467.98
2023-05-21T00:29:11.317Z,98467.83
2023-05-21T00:31:42.977Z,98468.14
2023-05-21T00:34:15.268Z,98464.66
2023-05-21T00:36:47.537Z,98465.33
2023-05-21T00:39:19.376Z,98463.69
2023-05-21T00:41:51.062Z,98461.70
2023-05-21T00:44:23.655Z,98462.70
2023-05-21T00:46:55.397Z,98463.45
2023-05-21T00:49:26.986Z,98462.75
2023-05-21T00:52:01.587Z,98460.97
2023-05-21T00:54:33.341Z,98461.43
2023-05-21T00:57:06.027Z,98459.34
2023-05-21T00:59:37.945Z,98458.39
2023-05-21T01:02:09.611Z,98459.56
2023-05-21T01:04:41.289Z,98457.57
2023-05-21T01:07:13.329Z,98451.45
2023-05-21T01:09:45.124Z,98452.15
2023-05-21T01:12:16.891Z,98451.42
2023-05-21T01:14:49.024Z,98448.20
2023-05-21T01:17:24.253Z,98448.30
2023-05-21T01:19:56.880Z,98445.05
2023-05-21T01:22:29.750Z,98440.48
2023-05-21T01:25:02.910Z,98440.97
2023-05-21T01:27:34.586Z,98437.77
2023-05-21T01:30:08.373Z,98435.69
2023-05-21T01:32:49.041Z,98429.55
2023-05-21T01:35:25.051Z,98428.66
2023-05-21T01:38:03.756Z,98431.13
2023-05-21T01:40:42.107Z,98431.70
2023-05-21T01:43:15.323Z,98425.26
2023-05-21T01:45:48.455Z,98422.64
2023-05-21T01:48:21.104Z,98418.40
2023-05-21T01:50:55.276Z,98426.48
2023-05-21T01:53:27.031Z,98421.30
2023-05-21T01:55:59.304Z,98414.66
2023-05-21T01:58:31.243Z,98415.11
2023-05-21T02:01:03.807Z,98410.90
2023-05-21T02:03:35.769Z,98411.00
2023-05-21T02:06:07.489Z,98406.97
2023-05-21T02:08:39.528Z,98408.52
2023-05-21T02:11:11.036Z,98409.70
2023-05-21T02:13:42.991Z,98407.77
2023-05-21T02:16:15.947Z,98402.18
2023-05-21T02:18:51.260Z,98399.61
2023-05-21T02:21:22.861Z,98398.71
2023-05-21T02:23:54.423Z,98392.25
2023-05-21T02:26:26.131Z,98389.41
2023-05-21T02:28:57.986Z,98389.38
2023-05-21T02:31:29.690Z,98384.39
2023-05-21T02:34:01.573Z,98383.34
2023-05-21T02:36:33.260Z,98384.75
2023-05-21T02:39:05.017Z,98382.61
2023-05-21T02:41:37.667Z,98381.11
2023-05-21T02:44:09.682Z,98381.79
2023-05-21T02:46:41.405Z,98376.02
2023-05-21T02:49:13.218Z,98371.16
2023-05-21T02:51:46.042Z,98368.05
2023-05-21T02:54:17.725Z,98368.08
2023-05-21T02:56:49.344Z,98366.41
2023-05-21T02:59:20.940Z,98363.89
2023-05-21T03:01:52.734Z,98365.31
2023-05-21T03:04:25.154Z,98368.02
2023-05-21T03:06:57.376Z,98368.39
2023-05-21T03:09:29.038Z,98369.05
2023-05-21T03:12:01.594Z,98365.95
2023-05-21T03:14:33.837Z,98367.23
2023-05-21T03:17:06.254Z,98359.95
2023-05-21T03:19:38.247Z,98359.23
2023-05-21T03:22:11.329Z,98359.35
2023-05-21T03:24:42.891Z,98359.73
2023-05-21T03:27:14.438Z,98358.39
2023-05-21T03:29:47.906Z,98354.23
2023-05-21T03:32:19.893Z,98358.92
2023-05-21T03:34:52.482Z,98361.31
2023-05-21T03:37:24.150Z,98357.87
2023-05-21T03:39:55.799Z,98359.29
2023-05-21T03:42:27.420Z,98361.86
2023-05-21T03:44:59.733Z,98368.44
2023-05-21T03:47:51.632Z,98369.50
2023-05-21T03:50:23.306Z,98370.41
2023-05-21T03:52:55.042Z,98372.75
2023-05-21T03:55:26.768Z,98365.15
2023-05-21T03:57:58.626Z,98366.98
2023-05-21T04:00:30.291Z,98367.88
2023-05-21T04:03:02.370Z,98364.98
2023-05-21T04:05:34.593Z,98363.14
2023-05-21T04:08:06.807Z,98363.84
2023-05-21T04:10:38.361Z,98365.77
2023-05-21T04:13:10.010Z,98364.91
2023-05-21T04:15:43.642Z,98365.68
2023-05-21T04:18:16.600Z,98368.14
2023-05-21T04:20:49.965Z,98370.41
2023-05-21T04:23:23.553Z,98365.57
2023-05-21T04:25:55.774Z,98367.88
2023-05-21T04:28:28.943Z,98370.31
2023-05-21T04:31:01.370Z,98366.44
2023-05-21T04:33:33.547Z,98366.28
2023-05-21T04:36:05.736Z,98368.02
2023-05-21T04:38:38.298Z,98368.35
2023-05-21T04:41:10.966Z,98368.27
2023-05-21T04:43:44.015Z,98369.03
2023-05-21T04:46:16.167Z,98368.44
2023-05-21T04:48:47.927Z,98369.38
2023-05-21T04:51:19.531Z,98369.69
2023-05-21T04:53:51.392Z,98370.91
2023-05-21T04:56:23.500Z,98367.45
2023-05-21T04:58:55.407Z,98373.39
2023-05-21T05:01:29.227Z,98364.58
2023-05-21T05:04:01.160Z,98367.23
2023-05-21T05:06:33.009Z,98368.95
2023-05-21T05:09:04.850Z,98367.52
2023-05-21T05:11:36.680Z,98372.54
2023-05-21T05:14:09.406Z,98369.73
2023-05-21T05:16:41.307Z,98371.15
2023-05-21T05:19:13.024Z,98365.58
2023-05-21T05:21:44.633Z,98365.25
2023-05-21T05:24:17.219Z,98371.11
2023-05-21T05:26:49.120Z,98373.35
2023-05-21T05:29:21.021Z,98373.81
2023-05-21T05:31:52.737Z,98372.09
2023-05-21T05:34:24.293Z,98373.30
2023-05-21T05:36:57.262Z,98374.69
2023-05-21T05:39:29.062Z,98373.17
2023-05-21T05:42:00.621Z,98372.55
2023-05-21T05:44:32.345Z,98369.88
2023-05-21T05:47:09.155Z,98374.52
2023-05-21T05:49:40.754Z,98373.33
2023-05-21T05:52:12.320Z,98370.93
2023-05-21T05:54:43.931Z,98369.15
2023-05-21T05:57:15.635Z,98363.41
2023-05-21T05:59:50.219Z,98367.31
2023-05-21T06:02:22.042Z,98369.80
2023-05-21T06:04:53.913Z,98363.30
2023-05-21T06:07:25.562Z,98366.05
2023-05-21T06:09:57.128Z,98366.54
2023-05-21T06:12:28.968Z,98363.42
2023-05-21T06:15:00.822Z,98367.00
2023-05-21T06:17:33.761Z,98361.02
2023-05-21T06:20:06.217Z,98358.95
2023-05-21T06:22:37.967Z,98361.44
2023-05-21T06:25:11.814Z,98358.84
2023-05-21T06:27:43.600Z,98358.34
2023-05-21T06:30:21.183Z,98360.21
2023-05-21T06:32:52.994Z,98358.26
2023-05-21T06:35:24.731Z,98360.77
2023-05-21T06:37:56.363Z,98361.13
2023-05-21T06:40:27.943Z,98357.79
2023-05-21T06:42:59.962Z,98359.48
2023-05-21T06:45:54.561Z,98354.48
2023-05-21T06:48:38.719Z,98353.02
2023-05-21T06:51:10.394Z,98352.07
2023-05-21T06:53:42.214Z,98352.37
2023-05-21T06:56:14.057Z,98350.41
2023-05-21T06:58:47.625Z,98348.89
2023-05-21T07:01:22.476Z,98345.84
2023-05-21T07:03:54.409Z,98342.82
2023-05-21T07:06:26.304Z,98344.88
2023-05-21T07:08:57.909Z,98346.97
2023-05-21T07:11:29.625Z,98342.52
2023-05-21T07:14:02.471Z,98345.21
2023-05-21T07:16:35.277Z,98345.48
2023-05-21T07:19:07.192Z,98343.96
2023-05-21T07:21:39.157Z,98339.67
2023-05-21T07:24:11.728Z,98340.25
2023-05-21T07:26:44.773Z,98338.80
2023-05-21T07:29:16.632Z,98341.00
2023-05-21T07:31:48.742Z,98337.63
2023-05-21T07:34:20.713Z,98334.71
2023-05-21T07:36:52.388Z,98335.23
2023-05-21T07:39:24.586Z,98337.90
2023-05-21T07:41:57.172Z,98333.77
2023-05-21T07:44:28.999Z,98332.55
2023-05-21T07:47:01.606Z,98333.34
2023-05-21T07:49:33.611Z,98330.16
2023-05-21T07:52:06.172Z,98329.29
2023-05-21T07:54:38.055Z,98326.38
2023-05-21T07:57:10.335Z,98331.05
2023-05-21T08:03:00.127Z,98329.20
2023-05-21T08:05:33.404Z,98330.16
2023-05-21T08:08:06.085Z,98330.97
2023-05-21T08:10:38.420Z,98327.55
2023-05-21T08:13:11.227Z,98323.67
2023-05-21T08:15:43.078Z,98327.06
2023-05-21T08:18:19.312Z,98327.98
2023-05-21T08:21:04.237Z,98323.09
2023-05-21T08:23:37.490Z,98322.47
2023-05-21T08:26:11.870Z,98323.38
2023-05-21T08:28:44.238Z,98322.95
2023-05-21T08:31:18.956Z,98318.45
2023-05-21T08:33:54.429Z,98317.75
2023-05-21T08:36:30.085Z,98320.98
2023-05-21T08:39:06.757Z,98325.29
2023-05-21T08:41:42.719Z,98327.11
2023-05-21T08:44:15.089Z,98316.98
2023-05-21T08:46:50.722Z,98317.13
2023-05-21T08:49:27.850Z,98319.40
2023-05-21T08:52:01.453Z,98317.02
2023-05-21T08:54:33.308Z,98322.83
2023-05-21T08:57:06.448Z,98314.63
2023-05-21T08:59:43.177Z,98317.29
2023-05-21T09:02:18.262Z,98316.97
2023-05-21T09:04:50.914Z,98319.73
2023-05-21T09:07:23.163Z,98322.59
2023-05-21T09:10:15.528Z,98317.93
2023-05-21T09:12:48.899Z,98314.55
2023-05-21T09:15:21.236Z,98322.60
2023-05-21T09:17:53.688Z,98319.30
2023-05-21T09:21:26.837Z,98311.81
2023-05-21T09:24:02.585Z,98312.55
2023-05-21T09:26:35.647Z,98315.19
2023-05-21T09:29:09.499Z,98315.67
2023-05-21T09:31:46.108Z,98324.38
2023-05-21T09:34:18.787Z,98318.41
2023-05-21T09:36:58.211Z,98319.08
2023-05-21T09:39:33.494Z,98315.75
2023-05-21T09:42:07.720Z,98313.77
2023-05-21T09:44:40.147Z,98320.57
2023-05-21T09:47:13.240Z,98318.48
2023-05-21T09:49:46.454Z,98311.74
2023-05-21T09:52:26.379Z,98311.51
2023-05-21T09:54:58.517Z,98309.11
2023-05-21T09:57:30.304Z,98310.14
2023-05-21T10:00:02.144Z,98312.74
2023-05-21T10:02:37.682Z,98308.48
2023-05-21T10:05:11.427Z,98306.98
2023-05-21T10:07:46.291Z,98300.22
2023-05-21T10:10:20.583Z,98299.04
2023-05-21T10:12:56.324Z,98294.27
2023-05-21T10:15:32.559Z,98289.52
2023-05-21T10:18:04.738Z,98288.48
2023-05-21T10:20:38.186Z,98289.35
2023-05-21T10:23:10.576Z,98287.27
2023-05-21T10:25:42.958Z,98289.06
2023-05-21T10:28:19.010Z,98285.96
2023-05-21T10:30:50.825Z,98289.42
2023-05-21T10:33:24.058Z,98282.98
2023-05-21T10:35:59.363Z,98290.50
2023-05-21T10:38:33.247Z,98283.80
2023-05-21T10:41:06.629Z,98279.46
2023-05-21T10:43:58.315Z,98280.71
2023-05-21T10:46:44.441Z,98285.31
2023-05-21T10:49:38.183Z,98283.73
2023-05-21T10:52:20.376Z,98288.86
2023-05-21T10:55:08.761Z,98277.89
2023-05-21T10:58:00.491Z,98281.68
2023-05-21T11:00:32.867Z,98281.19
2023-05-21T11:03:06.456Z,98281.95
2023-05-21T11:05:55.163Z,98283.09
2023-05-21T11:08:31.571Z,98280.64
2023-05-21T11:11:03.730Z,98274.86
2023-05-21T11:13:49.866Z,98268.58
2023-05-21T11:16:25.892Z,98266.34
2023-05-21T11:19:04.211Z,98274.66
2023-05-21T11:21:37.641Z,98265.92
2023-05-21T11:24:10.972Z,98264.41
2023-05-21T11:27:04.342Z,98271.90
2023-05-21T11:29:41.447Z,98265.04
2023-05-21T11:32:15.572Z,98261.09
2023-05-21T11:34:48.203Z,98258.52
2023-05-21T11:37:30.524Z,98259.54
2023-05-21T11:40:19.822Z,98264.20
2023-05-21T11:42:55.985Z,98261.33
2023-05-21T11:45:31.861Z,98254.85
2023-05-21T11:48:04.529Z,98254.31
2023-05-21T11:50:37.596Z,98260.11
2023-05-21T11:53:12.323Z,98253.30
2023-05-21T11:55:48.369Z,98255.99
2023-05-21T11:58:23.728Z,98259.30
2023-05-21T12:00:58.310Z,98259.79
2023-05-21T12:03:30.496Z,98253.13
2023-05-21T12:06:09.251Z,98254.65
2023-05-21T12:08:40.978Z,98249.95
2023-05-21T12:11:12.574Z,98256.22
2023-05-21T12:13:44.287Z,98251.65
2023-05-21T12:16:17.088Z,98260.22
2023-05-21T12:18:48.722Z,98256.68
2023-05-21T12:21:20.669Z,98250.63
2023-05-21T12:23:52.238Z,98250.35
2023-05-21T12:26:25.410Z,98249.41
2023-05-21T12:28:57.938Z,98247.11
2023-05-21T12:31:32.940Z,98248.90
2023-05-21T12:34:04.805Z,98243.71
2023-05-21T12:36:38.125Z,98252.08
2023-05-21T12:39:11.376Z,98247.63
2023-05-21T12:41:43.687Z,98245.80
2023-05-21T12:44:15.332Z,98244.64
2023-05-21T12:46:46.906Z,98243.38
2023-05-21T12:49:38.714Z,98241.55
2023-05-21T12:52:13.165Z,98245.04
2023-05-21T12:54:47.243Z,98246.96
2023-05-21T12:57:21.031Z,98238.50
2023-05-21T12:59:56.502Z,98241.89
2023-05-21T13:02:29.864Z,98238.10
2023-05-21T13:05:04.950Z,98230.83
2023-05-21T13:07:38.651Z,98228.73
2023-05-21T13:10:12.260Z,98235.29
2023-05-21T13:12:44.679Z,98233.71
2023-05-21T13:15:16.991Z,98235.20
2023-05-21T13:17:50.090Z,98228.64
2023-05-21T13:20:26.211Z,98227.14
2023-05-21T13:22:58.338Z,98223.50
2023-05-21T13:25:30.106Z,98229.01
2023-05-21T13:28:05.280Z,98229.73
2023-05-21T13:30:37.318Z,98227.03
2023-05-21T13:33:09.753Z,98225.69
2023-05-21T13:35:41.732Z,98223.39
2023-05-21T13:38:13.397Z,98222.16
2023-05-21T13:40:45.048Z,98216.37
2023-05-21T13:43:16.743Z,98219.30
2023-05-21T13:45:50.167Z,98216.98
2023-05-21T13:48:21.728Z,98218.12
2023-05-21T13:50:53.372Z,98212.90
2023-05-21T13:53:25.199Z,98214.83
2023-05-21T13:55:56.753Z,98211.83
2023-05-21T13:58:28.635Z,98212.67
2023-05-21T14:01:00.237Z,98209.86
2023-05-21T14:03:32.125Z,98205.98
2023-05-21T14:06:03.761Z,98211.31
2023-05-21T14:08:35.544Z,98205.77
2023-05-21T14:11:07.564Z,98206.70
2023-05-21T14:13:40.068Z,98203.87
2023-05-21T14:16:12.933Z,98205.56
2023-05-21T14:18:44.743Z,98200.86
2023-05-21T14:21:16.469Z,98194.67
2023-05-21T14:23:48.344Z,98195.60
2023-05-21T14:26:20.666Z,98194.09
2023-05-21T14:28:52.425Z,98193.80
2023-05-21T14:31:25.072Z,98196.89
2023-05-21T14:33:56.698Z,98196.21
2023-05-21T14:36:28.309Z,98196.95
2023-05-21T14:38:59.926Z,98195.02
2023-05-21T14:41:31.996Z,98196.21
2023-05-21T14:44:07.069Z,98196.86
2023-05-21T14:46:46.570Z,98197.64
2023-05-21T14:49:22.978Z,98192.30
2023-05-21T14:51:57.829Z,98192.92
2023-05-21T14:54:29.605Z,98196.91
2023-05-21T14:57:01.572Z,98196.34
2023-05-21T14:59:33.306Z,98199.83
2023-05-21T15:02:05.226Z,98196.09
2023-05-21T15:04:37.533Z,98191.35
2023-05-21T15:07:10.589Z,98188.14
2023-05-21T15:09:42.616Z,98190.98
2023-05-21T15:12:15.093Z,98187.80
2023-05-21T15:14:46.726Z,98191.27
2023-05-21T15:17:24.962Z,98187.59
2023-05-21T15:19:58.489Z,98188.98
2023-05-21T15:22:36.333Z,98184.00
2023-05-21T15:25:13.766Z,98188.48
2023-05-21T15:27:45.923Z,98185.67
2023-05-21T15:30:18.496Z,98181.42
2023-05-21T15:32:52.157Z,98185.69
2023-05-21T15:35:24.838Z,98183.63
2023-05-21T15:37:58.697Z,98183.77
2023-05-21T15:40:31.123Z,98182.59
2023-05-21T15:43:03.066Z,98189.31
2023-05-21T15:45:36.867Z,98178.95
2023-05-21T15:48:10.103Z,98181.05
2023-05-21T15:50:42.039Z,98182.77
2023-05-21T15:53:19.299Z,98178.38
2023-05-21T15:56:04.063Z,98172.75
2023-05-21T15:58:37.244Z,98174.65
2023-05-21T16:01:09.410Z,98172.95
2023-05-21T16:03:41.973Z,98175.98
2023-05-21T16:06:14.521Z,98172.18
2023-05-21T16:08:46.659Z,98171.48
2023-05-21T16:11:19.388Z,98176.23
2023-05-21T16:13:51.892Z,98175.15
2023-05-21T16:16:24.899Z,98179.69
2023-05-21T16:19:02.554Z,98174.91
2023-05-21T16:21:35.149Z,98182.09
2023-05-21T16:24:09.410Z,98179.92
2023-05-21T16:26:43.209Z,98181.75
2023-05-21T16:29:16.920Z,98181.45
2023-05-21T16:31:50.276Z,98180.36
2023-05-21T16:34:22.476Z,98181.69
2023-05-21T16:36:54.655Z,98182.08
2023-05-21T16:39:26.677Z,98176.52
2023-05-21T16:41:59.885Z,98178.66
2023-05-21T16:44:32.444Z,98175.27
2023-05-21T16:47:05.571Z,98173.20
2023-05-21T16:49:37.372Z,98173.91
2023-05-21T16:52:10.103Z,98177.45
2023-05-21T16:54:48.327Z,98173.88
2023-05-21T16:57:20.875Z,98182.79
2023-05-21T16:59:55.151Z,98184.11
2023-05-21T17:02:26.791Z,98182.84
2023-05-21T17:04:58.748Z,98182.25
2023-05-21T17:07:33.232Z,98184.85
2023-05-21T17:10:06.166Z,98182.95
2023-05-21T17:12:39.024Z,98185.10
2023-05-21T17:15:12.895Z,98186.16
2023-05-21T17:17:45.210Z,98181.67
2023-05-21T17:20:17.824Z,98184.20
2023-05-21T17:22:53.234Z,98178.42
2023-05-21T17:25:25.708Z,98180.31
2023-05-21T17:27:57.853Z,98181.70
2023-05-21T17:30:29.897Z,98178.69
2023-05-21T17:33:02.376Z,98180.20
2023-05-21T17:35:34.934Z,98184.20
2023-05-21T17:38:07.376Z,98182.23
2023-05-21T17:40:41.052Z,98183.17
2023-05-21T17:43:13.086Z,98183.55
2023-05-21T17:45:45.444Z,98186.96
2023-05-21T17:48:17.740Z,98188.92
2023-05-21T17:50:50.115Z,98186.55
2023-05-21T17:53:24.371Z,98186.45
2023-05-21T17:55:56.042Z,98187.84
2023-05-21T17:58:27.557Z,98189.77
2023-05-21T18:00:59.356Z,98191.48
2023-05-21T18:03:32.376Z,98191.48
2023-05-21T18:06:08.093Z,98192.65
2023-05-21T18:08:41.245Z,98192.86
2023-05-21T18:11:13.001Z,98192.40
2023-05-21T18:13:45.005Z,98197.46
2023-05-21T18:16:16.948Z,98196.14
2023-05-21T18:18:48.662Z,98196.14
2023-05-21T18:21:20.296Z,98197.17
2023-05-21T18:23:51.947Z,98196.78
2023-05-21T18:26:23.654Z,98202.24
2023-05-21T18:28:55.399Z,98200.52
2023-05-21T18:31:28.310Z,98202.44
2023-05-21T18:34:02.272Z,98207.71
2023-05-21T18:36:38.814Z,98206.12
2023-05-21T18:39:12.666Z,98206.07
2023-05-21T18:41:44.475Z,98209.81
2023-05-21T18:44:20.982Z,98211.81
2023-05-21T18:46:53.793Z,98216.17
2023-05-21T18:49:27.253Z,98215.79
2023-05-21T18:51:59.635Z,98217.79
2023-05-21T18:54:32.054Z,98216.65
2023-05-21T18:57:11.150Z,98216.12
2023-05-21T18:59:43.279Z,98220.70
2023-05-21T19:02:15.002Z,98221.27
2023-05-21T19:04:46.624Z,98226.27
2023-05-21T19:07:18.225Z,98227.70
2023-05-21T19:09:49.898Z,98226.90
2023-05-21T19:12:22.031Z,98228.81
2023-05-21T19:14:53.583Z,98226.34
2023-05-21T19:17:25.972Z,98226.41
2023-05-21T19:19:57.625Z,98230.00
2023-05-21T19:22:30.808Z,98229.19
2023-05-21T19:25:02.331Z,98230.16
2023-05-21T19:27:33.953Z,98234.06
2023-05-21T19:30:06.103Z,98234.55
2023-05-21T19:32:37.725Z,98235.91
2023-05-21T19:35:11.301Z,98236.51
2023-05-21T19:37:43.062Z,98237.66
2023-05-21T19:40:17.570Z,98237.27
2023-05-21T19:42:49.201Z,98231.89
2023-05-21T19:45:21.517Z,98229.38
2023-05-21T19:47:53.214Z,98226.49
2023-05-21T19:50:54.748Z,98226.50
2023-05-21T19:53:36.834Z,98223.72
2023-05-21T19:56:14.530Z,98226.55
2023-05-21T19:58:48.087Z,98221.50
2023-05-21T20:01:30.168Z,98222.32
2023-05-21T20:04:11.064Z,98221.65
2023-05-21T20:06:45.426Z,98222.81
2023-05-21T20:09:18.061Z,98223.35
2023-05-21T20:11:50.570Z,98218.91
2023-05-21T20:14:22.720Z,98212.60
2023-05-21T20:16:54.683Z,98213.16
2023-05-21T20:19:27.290Z,98209.49
2023-05-21T20:22:00.720Z,98212.29
2023-05-21T20:24:40.331Z,98210.27
2023-05-21T20:27:19.403Z,98209.58
2023-05-21T20:29:51.739Z,98210.46
2023-05-21T20:32:23.960Z,98210.25
2023-05-21T20:35:03.787Z,98212.67
2023-05-21T20:37:38.647Z,98211.98
2023-05-21T20:40:14.867Z,98211.97
2023-05-21T20:42:48.340Z,98214.76
2023-05-21T20:45:20.985Z,98215.43
2023-05-21T20:47:54.037Z,98217.30
2023-05-21T20:50:26.063Z,98218.39
2023-05-21T20:52:59.504Z,98218.75
2023-05-21T20:55:34.595Z,98220.77
2023-05-21T20:58:08.801Z,98222.45
2023-05-21T21:00:45.698Z,98222.51
2023-05-21T21:03:18.744Z,98227.07
2023-05-21T21:05:50.957Z,98222.93
2023-05-21T21:08:22.966Z,98222.33
2023-05-21T21:10:54.701Z,98224.91
2023-05-21T21:13:26.606Z,98229.19
2023-05-21T21:15:58.334Z,98228.69
2023-05-21T21:18:29.986Z,98229.69
2023-05-21T21:21:01.716Z,98232.45
2023-05-21T21:23:33.552Z,98234.23
2023-05-21T21:26:05.177Z,98236.57
2023-05-21T21:28:37.341Z,98233.16
2023-05-21T21:31:08.968Z,98233.95
2023-05-21T21:33:40.929Z,98233.96
2023-05-21T21:36:14.186Z,98237.80
2023-05-21T21:38:48.994Z,98231.98
2023-05-21T21:41:22.493Z,98233.52
2023-05-21T21:43:56.237Z,98230.55
2023-05-21T21:46:30.989Z,98232.26
2023-05-21T21:49:03.071Z,98225.80
2023-05-21T21:51:35.296Z,98225.67
2023-05-21T21:54:07.305Z,98221.52
2023-05-21T21:56:39.101Z,98221.59
2023-05-21T21:59:10.952Z,98218.80
2023-05-21T22:01:43.279Z,98216.57
2023-05-21T22:04:15.314Z,98214.21
2023-05-21T22:06:46.956Z,98216.16
2023-05-21T22:09:18.765Z,98214.35
2023-05-21T22:11:50.774Z,98212.90
2023-05-21T22:14:22.614Z,98213.01
2023-05-21T22:16:55.633Z,98210.25
2023-05-21T22:19:27.323Z,98211.24
2023-05-21T22:21:59.882Z,98213.37
2023-05-21T22:24:33.259Z,98208.45
2023-05-21T22:27:05.456Z,98203.27
2023-05-21T22:29:37.024Z,98199.64
2023-05-21T22:32:09.070Z,98198.27
2023-05-21T22:34:41.827Z,98203.92
2023-05-21T22:37:13.431Z,98206.63
2023-05-21T22:39:46.060Z,98209.06
2023-05-21T22:42:21.375Z,98214.02
2023-05-21T22:44:53.456Z,98208.66
2023-05-21T22:47:26.706Z,98209.21
2023-05-21T22:50:00.850Z,98207.44
2023-05-21T22:52:34.365Z,98205.96
2023-05-21T22:55:06.816Z,98205.42
2023-05-21T22:57:41.197Z,98204.64
2023-05-21T23:00:19.101Z,98207.63
2023-05-21T23:02:53.953Z,98206.04
2023-05-21T23:05:26.338Z,98211.48
2023-05-21T23:07:57.882Z,98213.50
2023-05-21T23:10:29.453Z,98214.45
2023-05-21T23:13:01.280Z,98211.85
2023-05-21T23:15:33.797Z,98211.99
2023-05-21T23:18:07.565Z,98211.12
2023-05-21T23:20:41.064Z,98208.68
2023-05-21T23:23:13.241Z,98207.27
2023-05-21T23:25:45.160Z,98205.26
2023-05-21T23:28:16.869Z,98200.41
2023-05-21T23:30:48.549Z,98202.41
2023-05-21T23:33:20.265Z,98203.73
2023-05-21T23:35:52.362Z,98207.31
2023-05-21T23:38:24.358Z,98202.85
2023-05-21T23:40:56.072Z,98200.45
2023-05-21T23:43:31.583Z,98201.03
2023-05-21T23:46:04.406Z,98200.84
2023-05-21T23:48:43.588Z,98199.10
2023-05-21T23:51:22.873Z,98198.34
2023-05-21T23:53:55.065Z,98199.61
2023-05-21T23:56:26.800Z,98198.03
2023-05-21T23:58:58.780Z,98195.72
